sensor_id;sensor_type;location;lat;lon;timestamp;P1;durP1;ratioP1;P2;durP2;ratioP2
17482;SDS011;8858;52.308;20.994;2024-02-23T00:01:49;7.13;;;6.40;;
17482;SDS011;8858;52.308;20.994;2024-02-23T00:04:18;6.97;;;5.87;;
17482;SDS011;8858;52.308;20.994;2024-02-23T00:06:48;7.17;;;6.43;;
17482;SDS011;8858;52.308;20.994;2024-02-23T00:09:17;7.67;;;6.43;;
17482;SDS011;8858;52.308;20.994;2024-02-23T00:11:48;6.67;;;5.97;;
17482;SDS011;8858;52.308;20.994;2024-02-23T00:14:16;6.40;;;5.80;;
17482;SDS011;8858;52.308;20.994;2024-02-23T00:16:47;7.50;;;6.17;;
17482;SDS011;8858;52.308;20.994;2024-02-23T00:19:16;6.90;;;6.20;;
17482;SDS011;8858;52.308;20.994;2024-02-23T00:21:48;6.97;;;6.27;;
17482;SDS011;8858;52.308;20.994;2024-02-23T00:24:18;6.50;;;5.83;;
17482;SDS011;8858;52.308;20.994;2024-02-23T00:26:48;7.70;;;6.43;;
17482;SDS011;8858;52.308;20.994;2024-02-23T00:29:18;8.17;;;6.37;;
17482;SDS011;8858;52.308;20.994;2024-02-23T00:31:49;7.60;;;6.50;;
17482;SDS011;8858;52.308;20.994;2024-02-23T00:34:17;7.10;;;6.40;;
17482;SDS011;8858;52.308;20.994;2024-02-23T00:36:46;6.80;;;6.10;;
17482;SDS011;8858;52.308;20.994;2024-02-23T00:39:18;6.80;;;6.10;;
17482;SDS011;8858;52.308;20.994;2024-02-23T00:41:48;6.63;;;5.93;;
17482;SDS011;8858;52.308;20.994;2024-02-23T00:44:16;6.70;;;6.10;;
17482;SDS011;8858;52.308;20.994;2024-02-23T00:46:45;6.87;;;6.17;;
17482;SDS011;8858;52.308;20.994;2024-02-23T00:49:14;8.53;;;5.87;;
17482;SDS011;8858;52.308;20.994;2024-02-23T00:51:44;7.40;;;6.13;;
17482;SDS011;8858;52.308;20.994;2024-02-23T00:54:15;11.60;;;6.27;;
17482;SDS011;8858;52.308;20.994;2024-02-23T00:56:43;6.83;;;6.13;;
17482;SDS011;8858;52.308;20.994;2024-02-23T00:59:18;7.10;;;5.77;;
17482;SDS011;8858;52.308;20.994;2024-02-23T01:01:48;6.33;;;5.63;;
17482;SDS011;8858;52.308;20.994;2024-02-23T01:04:16;7.00;;;6.30;;
17482;SDS011;8858;52.308;20.994;2024-02-23T01:06:48;7.10;;;6.40;;
17482;SDS011;8858;52.308;20.994;2024-02-23T01:09:20;6.30;;;5.70;;
17482;SDS011;8858;52.308;20.994;2024-02-23T01:11:49;6.47;;;5.87;;
17482;SDS011;8858;52.308;20.994;2024-02-23T01:14:18;6.70;;;6.00;;
17482;SDS011;8858;52.308;20.994;2024-02-23T01:16:47;6.70;;;6.00;;
17482;SDS011;8858;52.308;20.994;2024-02-23T01:19:16;6.53;;;5.97;;
17482;SDS011;8858;52.308;20.994;2024-02-23T01:21:46;7.10;;;6.43;;
17482;SDS011;8858;52.308;20.994;2024-02-23T01:24:15;6.77;;;5.63;;
17482;SDS011;8858;52.308;20.994;2024-02-23T01:26:46;6.83;;;6.10;;
17482;SDS011;8858;52.308;20.994;2024-02-23T01:29:15;6.50;;;5.83;;
17482;SDS011;8858;52.308;20.994;2024-02-23T01:31:45;6.87;;;6.17;;
17482;SDS011;8858;52.308;20.994;2024-02-23T01:34:14;6.87;;;5.80;;
17482;SDS011;8858;52.308;20.994;2024-02-23T01:36:44;6.53;;;5.57;;
17482;SDS011;8858;52.308;20.994;2024-02-23T01:39:12;7.27;;;6.43;;
17482;SDS011;8858;52.308;20.994;2024-02-23T01:41:42;6.57;;;5.90;;
17482;SDS011;8858;52.308;20.994;2024-02-23T01:44:13;6.10;;;5.57;;
17482;SDS011;8858;52.308;20.994;2024-02-23T01:46:44;6.20;;;5.60;;
17482;SDS011;8858;52.308;20.994;2024-02-23T01:49:13;7.33;;;6.63;;
17482;SDS011;8858;52.308;20.994;2024-02-23T01:51:42;7.13;;;6.00;;
17482;SDS011;8858;52.308;20.994;2024-02-23T01:54:11;7.20;;;6.40;;
17482;SDS011;8858;52.308;20.994;2024-02-23T01:56:41;6.37;;;5.77;;
17482;SDS011;8858;52.308;20.994;2024-02-23T01:59:11;6.00;;;5.40;;
17482;SDS011;8858;52.308;20.994;2024-02-23T02:01:46;7.00;;;5.70;;
17482;SDS011;8858;52.308;20.994;2024-02-23T02:04:27;6.93;;;6.00;;
17482;SDS011;8858;52.308;20.994;2024-02-23T02:07:00;5.90;;;5.40;;
17482;SDS011;8858;52.308;20.994;2024-02-23T02:09:29;6.33;;;5.40;;
17482;SDS011;8858;52.308;20.994;2024-02-23T02:11:58;6.20;;;5.70;;
17482;SDS011;8858;52.308;20.994;2024-02-23T02:14:39;5.90;;;5.30;;
17482;SDS011;8858;52.308;20.994;2024-02-23T02:17:08;6.23;;;5.37;;
17482;SDS011;8858;52.308;20.994;2024-02-23T02:19:45;6.03;;;5.53;;
17482;SDS011;8858;52.308;20.994;2024-02-23T02:22:16;6.03;;;5.43;;
17482;SDS011;8858;52.308;20.994;2024-02-23T02:24:50;5.87;;;5.27;;
17482;SDS011;8858;52.308;20.994;2024-02-23T02:27:19;6.17;;;5.57;;
17482;SDS011;8858;52.308;20.994;2024-02-23T02:29:51;6.47;;;5.40;;
17482;SDS011;8858;52.308;20.994;2024-02-23T02:32:20;6.13;;;5.33;;
17482;SDS011;8858;52.308;20.994;2024-02-23T02:34:52;6.07;;;5.47;;
17482;SDS011;8858;52.308;20.994;2024-02-23T02:37:21;5.67;;;5.17;;
17482;SDS011;8858;52.308;20.994;2024-02-23T02:39:49;6.10;;;5.50;;
17482;SDS011;8858;52.308;20.994;2024-02-23T02:42:18;5.63;;;5.13;;
17482;SDS011;8858;52.308;20.994;2024-02-23T02:44:46;6.70;;;5.40;;
17482;SDS011;8858;52.308;20.994;2024-02-23T02:47:17;5.70;;;5.10;;
17482;SDS011;8858;52.308;20.994;2024-02-23T02:49:48;5.10;;;4.70;;
17482;SDS011;8858;52.308;20.994;2024-02-23T02:52:16;4.97;;;4.57;;
17482;SDS011;8858;52.308;20.994;2024-02-23T02:54:45;4.80;;;4.40;;
17482;SDS011;8858;52.308;20.994;2024-02-23T02:57:13;5.27;;;4.70;;
17482;SDS011;8858;52.308;20.994;2024-02-23T02:59:42;5.43;;;4.47;;
17482;SDS011;8858;52.308;20.994;2024-02-23T03:02:16;4.60;;;4.20;;
17482;SDS011;8858;52.308;20.994;2024-02-23T03:04:48;4.90;;;4.50;;
17482;SDS011;8858;52.308;20.994;2024-02-23T03:07:17;4.87;;;4.37;;
17482;SDS011;8858;52.308;20.994;2024-02-23T03:09:46;6.17;;;4.60;;
17482;SDS011;8858;52.308;20.994;2024-02-23T03:12:17;4.90;;;4.30;;
17482;SDS011;8858;52.308;20.994;2024-02-23T03:14:47;4.33;;;4.03;;
17482;SDS011;8858;52.308;20.994;2024-02-23T03:17:17;4.73;;;4.27;;
17482;SDS011;8858;52.308;20.994;2024-02-23T03:19:49;4.93;;;4.43;;
17482;SDS011;8858;52.308;20.994;2024-02-23T03:22:19;5.83;;;4.30;;
17482;SDS011;8858;52.308;20.994;2024-02-23T03:24:47;4.63;;;4.23;;
17482;SDS011;8858;52.308;20.994;2024-02-23T03:27:16;4.10;;;3.80;;
17482;SDS011;8858;52.308;20.994;2024-02-23T03:29:45;4.37;;;4.00;;
17482;SDS011;8858;52.308;20.994;2024-02-23T03:32:18;4.73;;;4.30;;
17482;SDS011;8858;52.308;20.994;2024-02-23T03:34:47;5.13;;;4.17;;
17482;SDS011;8858;52.308;20.994;2024-02-23T03:37:16;4.50;;;4.10;;
17482;SDS011;8858;52.308;20.994;2024-02-23T03:39:45;4.57;;;4.17;;
17482;SDS011;8858;52.308;20.994;2024-02-23T03:42:15;4.50;;;4.10;;
17482;SDS011;8858;52.308;20.994;2024-02-23T03:44:44;4.33;;;3.97;;
17482;SDS011;8858;52.308;20.994;2024-02-23T03:47:12;4.83;;;4.33;;
17482;SDS011;8858;52.308;20.994;2024-02-23T03:49:42;4.07;;;3.77;;
17482;SDS011;8858;52.308;20.994;2024-02-23T03:52:10;4.50;;;4.10;;
17482;SDS011;8858;52.308;20.994;2024-02-23T03:54:39;4.43;;;4.03;;
17482;SDS011;8858;52.308;20.994;2024-02-23T03:57:08;4.20;;;3.87;;
17482;SDS011;8858;52.308;20.994;2024-02-23T03:59:37;4.50;;;4.10;;
17482;SDS011;8858;52.308;20.994;2024-02-23T04:02:08;4.83;;;4.33;;
17482;SDS011;8858;52.308;20.994;2024-02-23T04:04:37;4.20;;;3.90;;
17482;SDS011;8858;52.308;20.994;2024-02-23T04:07:11;4.43;;;3.90;;
17482;SDS011;8858;52.308;20.994;2024-02-23T04:09:44;4.47;;;4.17;;
17482;SDS011;8858;52.308;20.994;2024-02-23T04:12:21;5.13;;;3.80;;
17482;SDS011;8858;52.308;20.994;2024-02-23T04:14:54;4.90;;;4.20;;
17482;SDS011;8858;52.308;20.994;2024-02-23T04:17:25;5.63;;;4.33;;
17482;SDS011;8858;52.308;20.994;2024-02-23T04:19:59;4.93;;;4.00;;
17482;SDS011;8858;52.308;20.994;2024-02-23T04:22:36;4.87;;;4.40;;
17482;SDS011;8858;52.308;20.994;2024-02-23T04:25:05;4.73;;;4.10;;
17482;SDS011;8858;52.308;20.994;2024-02-23T04:27:34;5.23;;;3.93;;
17482;SDS011;8858;52.308;20.994;2024-02-23T04:30:03;4.90;;;4.13;;
17482;SDS011;8858;52.308;20.994;2024-02-23T04:32:33;5.17;;;3.97;;
17482;SDS011;8858;52.308;20.994;2024-02-23T04:35:02;4.63;;;3.90;;
17482;SDS011;8858;52.308;20.994;2024-02-23T04:37:33;4.40;;;4.00;;
17482;SDS011;8858;52.308;20.994;2024-02-23T04:40:06;4.90;;;4.43;;
17482;SDS011;8858;52.308;20.994;2024-02-23T04:42:35;4.13;;;3.83;;
17482;SDS011;8858;52.308;20.994;2024-02-23T04:45:04;5.00;;;3.90;;
17482;SDS011;8858;52.308;20.994;2024-02-23T04:47:37;4.43;;;4.00;;
17482;SDS011;8858;52.308;20.994;2024-02-23T04:50:08;4.57;;;4.17;;
17482;SDS011;8858;52.308;20.994;2024-02-23T04:52:37;4.73;;;3.93;;
17482;SDS011;8858;52.308;20.994;2024-02-23T04:55:07;5.93;;;4.20;;
17482;SDS011;8858;52.308;20.994;2024-02-23T04:57:36;3.90;;;3.60;;
17482;SDS011;8858;52.308;20.994;2024-02-23T05:00:07;5.47;;;4.37;;
17482;SDS011;8858;52.308;20.994;2024-02-23T05:02:36;4.47;;;3.53;;
17482;SDS011;8858;52.308;20.994;2024-02-23T05:05:05;4.50;;;4.10;;
17482;SDS011;8858;52.308;20.994;2024-02-23T05:07:37;4.20;;;3.80;;
17482;SDS011;8858;52.308;20.994;2024-02-23T05:10:06;4.67;;;3.77;;
17482;SDS011;8858;52.308;20.994;2024-02-23T05:12:36;5.63;;;4.07;;
17482;SDS011;8858;52.308;20.994;2024-02-23T05:15:06;4.50;;;4.10;;
17482;SDS011;8858;52.308;20.994;2024-02-23T05:17:35;3.63;;;3.33;;
17482;SDS011;8858;52.308;20.994;2024-02-23T05:20:06;4.83;;;3.40;;
17482;SDS011;8858;52.308;20.994;2024-02-23T05:22:38;5.23;;;3.80;;
17482;SDS011;8858;52.308;20.994;2024-02-23T05:25:08;5.67;;;4.00;;
17482;SDS011;8858;52.308;20.994;2024-02-23T05:27:37;3.97;;;3.60;;
17482;SDS011;8858;52.308;20.994;2024-02-23T05:30:09;3.60;;;3.30;;
17482;SDS011;8858;52.308;20.994;2024-02-23T05:32:40;4.13;;;3.57;;
17482;SDS011;8858;52.308;20.994;2024-02-23T05:35:08;3.97;;;3.57;;
17482;SDS011;8858;52.308;20.994;2024-02-23T05:37:37;3.97;;;3.67;;
17482;SDS011;8858;52.308;20.994;2024-02-23T05:40:05;3.67;;;3.13;;
17482;SDS011;8858;52.308;20.994;2024-02-23T05:42:40;3.77;;;3.47;;
17482;SDS011;8858;52.308;20.994;2024-02-23T05:45:08;4.17;;;3.77;;
17482;SDS011;8858;52.308;20.994;2024-02-23T05:47:37;3.73;;;3.43;;
17482;SDS011;8858;52.308;20.994;2024-02-23T05:50:12;7.03;;;3.70;;
17482;SDS011;8858;52.308;20.994;2024-02-23T05:52:41;3.60;;;3.30;;
17482;SDS011;8858;52.308;20.994;2024-02-23T05:55:09;4.00;;;3.50;;
17482;SDS011;8858;52.308;20.994;2024-02-23T05:57:40;4.00;;;3.60;;
17482;SDS011;8858;52.308;20.994;2024-02-23T06:00:09;4.93;;;3.47;;
17482;SDS011;8858;52.308;20.994;2024-02-23T06:02:42;7.07;;;3.63;;
17482;SDS011;8858;52.308;20.994;2024-02-23T06:05:11;5.33;;;3.63;;
17482;SDS011;8858;52.308;20.994;2024-02-23T06:07:40;3.80;;;3.50;;
17482;SDS011;8858;52.308;20.994;2024-02-23T06:10:09;5.00;;;3.67;;
17482;SDS011;8858;52.308;20.994;2024-02-23T06:12:42;4.00;;;3.60;;
17482;SDS011;8858;52.308;20.994;2024-02-23T06:15:11;4.10;;;3.70;;
17482;SDS011;8858;52.308;20.994;2024-02-23T06:17:41;3.73;;;3.40;;
17482;SDS011;8858;52.308;20.994;2024-02-23T06:20:13;4.97;;;3.70;;
17482;SDS011;8858;52.308;20.994;2024-02-23T06:22:42;4.23;;;3.80;;
17482;SDS011;8858;52.308;20.994;2024-02-23T06:25:12;4.47;;;3.63;;
17482;SDS011;8858;52.308;20.994;2024-02-23T06:27:40;4.43;;;3.60;;
17482;SDS011;8858;52.308;20.994;2024-02-23T06:30:11;4.80;;;3.93;;
17482;SDS011;8858;52.308;20.994;2024-02-23T06:32:42;4.40;;;3.97;;
17482;SDS011;8858;52.308;20.994;2024-02-23T06:35:12;4.03;;;3.63;;
17482;SDS011;8858;52.308;20.994;2024-02-23T06:37:41;4.17;;;3.77;;
17482;SDS011;8858;52.308;20.994;2024-02-23T06:40:10;3.97;;;3.57;;
17482;SDS011;8858;52.308;20.994;2024-02-23T06:42:37;3.93;;;3.53;;
17482;SDS011;8858;52.308;20.994;2024-02-23T06:45:11;3.73;;;3.40;;
17482;SDS011;8858;52.308;20.994;2024-02-23T06:47:40;4.17;;;3.87;;
17482;SDS011;8858;52.308;20.994;2024-02-23T06:50:09;3.97;;;3.57;;
17482;SDS011;8858;52.308;20.994;2024-02-23T06:52:38;4.17;;;3.60;;
17482;SDS011;8858;52.308;20.994;2024-02-23T06:55:07;4.30;;;3.67;;
17482;SDS011;8858;52.308;20.994;2024-02-23T06:57:37;3.83;;;3.53;;
17482;SDS011;8858;52.308;20.994;2024-02-23T07:00:06;5.37;;;4.83;;
17482;SDS011;8858;52.308;20.994;2024-02-23T07:02:37;4.50;;;4.00;;
17482;SDS011;8858;52.308;20.994;2024-02-23T07:05:05;3.73;;;3.43;;
17482;SDS011;8858;52.308;20.994;2024-02-23T07:07:34;4.33;;;3.93;;
17482;SDS011;8858;52.308;20.994;2024-02-23T07:10:02;4.83;;;4.43;;
17482;SDS011;8858;52.308;20.994;2024-02-23T07:12:31;4.73;;;3.90;;
17482;SDS011;8858;52.308;20.994;2024-02-23T07:15:01;4.90;;;3.97;;
17482;SDS011;8858;52.308;20.994;2024-02-23T07:17:30;4.10;;;3.77;;
17482;SDS011;8858;52.308;20.994;2024-02-23T07:20:00;4.53;;;4.10;;
17482;SDS011;8858;52.308;20.994;2024-02-23T07:22:33;6.40;;;5.73;;
17482;SDS011;8858;52.308;20.994;2024-02-23T07:25:03;4.10;;;3.70;;
17482;SDS011;8858;52.308;20.994;2024-02-23T07:27:32;4.43;;;4.00;;
17482;SDS011;8858;52.308;20.994;2024-02-23T07:30:00;4.43;;;4.03;;
17482;SDS011;8858;52.308;20.994;2024-02-23T07:32:29;5.17;;;4.17;;
17482;SDS011;8858;52.308;20.994;2024-02-23T07:35:02;4.80;;;3.70;;
17482;SDS011;8858;52.308;20.994;2024-02-23T07:37:32;4.17;;;3.77;;
17482;SDS011;8858;52.308;20.994;2024-02-23T07:40:00;4.17;;;3.87;;
17482;SDS011;8858;52.308;20.994;2024-02-23T07:42:29;5.63;;;4.20;;
17482;SDS011;8858;52.308;20.994;2024-02-23T07:44:58;7.77;;;4.33;;
17482;SDS011;8858;52.308;20.994;2024-02-23T07:47:29;4.17;;;3.77;;
17482;SDS011;8858;52.308;20.994;2024-02-23T07:49:59;4.20;;;3.80;;
17482;SDS011;8858;52.308;20.994;2024-02-23T07:52:31;5.03;;;4.17;;
17482;SDS011;8858;52.308;20.994;2024-02-23T07:54:59;5.33;;;4.40;;
17482;SDS011;8858;52.308;20.994;2024-02-23T07:57:29;4.30;;;3.87;;
17482;SDS011;8858;52.308;20.994;2024-02-23T07:59:58;4.90;;;4.50;;
17482;SDS011;8858;52.308;20.994;2024-02-23T08:02:37;4.40;;;3.40;;
17482;SDS011;8858;52.308;20.994;2024-02-23T08:05:07;4.53;;;4.10;;
17482;SDS011;8858;52.308;20.994;2024-02-23T08:07:38;4.57;;;4.10;;
17482;SDS011;8858;52.308;20.994;2024-02-23T08:10:09;4.30;;;3.90;;
17482;SDS011;8858;52.308;20.994;2024-02-23T08:12:39;4.93;;;3.90;;
17482;SDS011;8858;52.308;20.994;2024-02-23T08:15:09;4.20;;;3.87;;
17482;SDS011;8858;52.308;20.994;2024-02-23T08:17:37;4.17;;;3.80;;
17482;SDS011;8858;52.308;20.994;2024-02-23T08:20:07;4.43;;;4.03;;
17482;SDS011;8858;52.308;20.994;2024-02-23T08:22:38;5.63;;;4.47;;
17482;SDS011;8858;52.308;20.994;2024-02-23T08:25:07;4.50;;;4.10;;
17482;SDS011;8858;52.308;20.994;2024-02-23T08:27:40;4.30;;;3.90;;
17482;SDS011;8858;52.308;20.994;2024-02-23T08:30:10;4.60;;;4.20;;
17482;SDS011;8858;52.308;20.994;2024-02-23T08:32:44;5.57;;;3.90;;
17482;SDS011;8858;52.308;20.994;2024-02-23T08:35:12;4.30;;;3.90;;
17482;SDS011;8858;52.308;20.994;2024-02-23T08:37:43;5.60;;;3.80;;
17482;SDS011;8858;52.308;20.994;2024-02-23T08:40:12;5.30;;;4.57;;
17482;SDS011;8858;52.308;20.994;2024-02-23T08:42:41;7.23;;;4.43;;
17482;SDS011;8858;52.308;20.994;2024-02-23T08:45:13;5.40;;;4.20;;
17482;SDS011;8858;52.308;20.994;2024-02-23T08:47:42;5.47;;;4.43;;
17482;SDS011;8858;52.308;20.994;2024-02-23T08:50:10;6.17;;;4.40;;
17482;SDS011;8858;52.308;20.994;2024-02-23T08:52:39;4.80;;;4.30;;
17482;SDS011;8858;52.308;20.994;2024-02-23T08:55:09;5.63;;;4.40;;
17482;SDS011;8858;52.308;20.994;2024-02-23T08:57:41;6.67;;;4.47;;
17482;SDS011;8858;52.308;20.994;2024-02-23T09:00:11;4.97;;;4.10;;
17482;SDS011;8858;52.308;20.994;2024-02-23T09:02:43;4.97;;;4.40;;
17482;SDS011;8858;52.308;20.994;2024-02-23T09:05:14;6.53;;;4.73;;
17482;SDS011;8858;52.308;20.994;2024-02-23T09:07:43;5.23;;;4.23;;
17482;SDS011;8858;52.308;20.994;2024-02-23T09:10:14;4.60;;;4.20;;
17482;SDS011;8858;52.308;20.994;2024-02-23T09:12:42;5.13;;;4.30;;
17482;SDS011;8858;52.308;20.994;2024-02-23T09:15:10;5.57;;;4.40;;
17482;SDS011;8858;52.308;20.994;2024-02-23T09:17:41;4.83;;;4.43;;
17482;SDS011;8858;52.308;20.994;2024-02-23T09:20:10;7.83;;;7.07;;
17482;SDS011;8858;52.308;20.994;2024-02-23T09:22:39;6.17;;;5.57;;
17482;SDS011;8858;52.308;20.994;2024-02-23T09:25:07;6.03;;;4.10;;
17482;SDS011;8858;52.308;20.994;2024-02-23T09:27:37;5.33;;;4.83;;
17482;SDS011;8858;52.308;20.994;2024-02-23T09:30:11;5.73;;;4.80;;
17482;SDS011;8858;52.308;20.994;2024-02-23T09:32:41;6.20;;;4.40;;
17482;SDS011;8858;52.308;20.994;2024-02-23T09:35:11;5.20;;;4.67;;
17482;SDS011;8858;52.308;20.994;2024-02-23T09:37:39;7.57;;;4.63;;
17482;SDS011;8858;52.308;20.994;2024-02-23T09:40:08;6.67;;;4.30;;
17482;SDS011;8858;52.308;20.994;2024-02-23T09:42:40;5.63;;;4.83;;
17482;SDS011;8858;52.308;20.994;2024-02-23T09:45:10;4.83;;;4.33;;
17482;SDS011;8858;52.308;20.994;2024-02-23T09:47:39;6.00;;;4.80;;
17482;SDS011;8858;52.308;20.994;2024-02-23T09:50:10;6.30;;;4.77;;
17482;SDS011;8858;52.308;20.994;2024-02-23T09:52:42;5.20;;;4.40;;
17482;SDS011;8858;52.308;20.994;2024-02-23T09:55:11;6.47;;;4.50;;
17482;SDS011;8858;52.308;20.994;2024-02-23T09:57:41;8.47;;;5.00;;
17482;SDS011;8858;52.308;20.994;2024-02-23T10:00:13;6.03;;;5.30;;
17482;SDS011;8858;52.308;20.994;2024-02-23T10:02:43;6.93;;;4.90;;
17482;SDS011;8858;52.308;20.994;2024-02-23T10:05:13;5.33;;;4.67;;
17482;SDS011;8858;52.308;20.994;2024-02-23T10:07:43;4.93;;;4.53;;
17482;SDS011;8858;52.308;20.994;2024-02-23T10:10:22;7.67;;;5.20;;
17482;SDS011;8858;52.308;20.994;2024-02-23T10:12:54;5.40;;;4.90;;
17482;SDS011;8858;52.308;20.994;2024-02-23T10:15:28;6.00;;;5.40;;
17482;SDS011;8858;52.308;20.994;2024-02-23T10:17:58;5.83;;;5.23;;
17482;SDS011;8858;52.308;20.994;2024-02-23T10:20:27;5.60;;;5.10;;
17482;SDS011;8858;52.308;20.994;2024-02-23T10:22:57;7.87;;;6.37;;
17482;SDS011;8858;52.308;20.994;2024-02-23T10:25:26;7.43;;;6.57;;
17482;SDS011;8858;52.308;20.994;2024-02-23T10:27:55;6.30;;;4.83;;
17482;SDS011;8858;52.308;20.994;2024-02-23T10:30:24;5.57;;;4.90;;
17482;SDS011;8858;52.308;20.994;2024-02-23T10:32:55;5.47;;;4.93;;
17482;SDS011;8858;52.308;20.994;2024-02-23T10:35:26;5.80;;;5.20;;
17482;SDS011;8858;52.308;20.994;2024-02-23T10:37:54;5.57;;;5.07;;
17482;SDS011;8858;52.308;20.994;2024-02-23T10:40:23;5.07;;;4.63;;
17482;SDS011;8858;52.308;20.994;2024-02-23T10:42:54;6.17;;;4.47;;
17482;SDS011;8858;52.308;20.994;2024-02-23T10:45:30;4.97;;;4.53;;
17482;SDS011;8858;52.308;20.994;2024-02-23T10:47:59;5.40;;;4.77;;
17482;SDS011;8858;52.308;20.994;2024-02-23T10:50:29;5.03;;;4.43;;
17482;SDS011;8858;52.308;20.994;2024-02-23T10:53:01;6.33;;;5.33;;
17482;SDS011;8858;52.308;20.994;2024-02-23T10:55:31;16.50;;;13.00;;
17482;SDS011;8858;52.308;20.994;2024-02-23T10:58:03;6.33;;;5.13;;
17482;SDS011;8858;52.308;20.994;2024-02-23T11:00:37;6.97;;;4.67;;
17482;SDS011;8858;52.308;20.994;2024-02-23T11:03:06;5.67;;;4.47;;
17482;SDS011;8858;52.308;20.994;2024-02-23T11:05:35;5.17;;;4.63;;
17482;SDS011;8858;52.308;20.994;2024-02-23T11:08:06;5.23;;;4.73;;
17482;SDS011;8858;52.308;20.994;2024-02-23T11:10:42;5.23;;;4.70;;
17482;SDS011;8858;52.308;20.994;2024-02-23T11:13:12;6.50;;;4.63;;
17482;SDS011;8858;52.308;20.994;2024-02-23T11:15:45;7.37;;;4.90;;
17482;SDS011;8858;52.308;20.994;2024-02-23T11:18:22;6.30;;;4.80;;
17482;SDS011;8858;52.308;20.994;2024-02-23T11:20:53;5.00;;;4.50;;
17482;SDS011;8858;52.308;20.994;2024-02-23T11:23:23;5.70;;;4.40;;
17482;SDS011;8858;52.308;20.994;2024-02-23T11:25:58;7.23;;;4.60;;
17482;SDS011;8858;52.308;20.994;2024-02-23T11:28:33;5.57;;;4.30;;
17482;SDS011;8858;52.308;20.994;2024-02-23T11:31:12;5.20;;;4.70;;
17482;SDS011;8858;52.308;20.994;2024-02-23T11:33:48;5.10;;;4.60;;
17482;SDS011;8858;52.308;20.994;2024-02-23T11:36:24;4.77;;;4.37;;
17482;SDS011;8858;52.308;20.994;2024-02-23T11:39:01;5.17;;;4.67;;
17482;SDS011;8858;52.308;20.994;2024-02-23T11:41:29;5.90;;;5.13;;
17482;SDS011;8858;52.308;20.994;2024-02-23T11:43:59;5.50;;;4.90;;
17482;SDS011;8858;52.308;20.994;2024-02-23T11:46:30;7.43;;;5.27;;
17482;SDS011;8858;52.308;20.994;2024-02-23T11:48:58;6.97;;;4.97;;
17482;SDS011;8858;52.308;20.994;2024-02-23T11:51:30;5.87;;;5.37;;
17482;SDS011;8858;52.308;20.994;2024-02-23T11:54:00;7.47;;;5.70;;
17482;SDS011;8858;52.308;20.994;2024-02-23T11:56:28;6.60;;;5.90;;
17482;SDS011;8858;52.308;20.994;2024-02-23T11:58:57;7.13;;;5.43;;
17482;SDS011;8858;52.308;20.994;2024-02-23T12:01:29;6.50;;;5.40;;
17482;SDS011;8858;52.308;20.994;2024-02-23T12:03:58;6.30;;;5.30;;
17482;SDS011;8858;52.308;20.994;2024-02-23T12:06:27;6.23;;;5.60;;
17482;SDS011;8858;52.308;20.994;2024-02-23T12:09:00;7.00;;;5.60;;
17482;SDS011;8858;52.308;20.994;2024-02-23T12:11:28;6.00;;;5.40;;
17482;SDS011;8858;52.308;20.994;2024-02-23T12:13:57;6.27;;;5.70;;
17482;SDS011;8858;52.308;20.994;2024-02-23T12:16:26;6.60;;;5.80;;
17482;SDS011;8858;52.308;20.994;2024-02-23T12:18:56;7.10;;;5.73;;
17482;SDS011;8858;52.308;20.994;2024-02-23T12:21:24;6.17;;;5.50;;
17482;SDS011;8858;52.308;20.994;2024-02-23T12:23:53;6.67;;;5.97;;
17482;SDS011;8858;52.308;20.994;2024-02-23T12:26:21;6.50;;;5.90;;
17482;SDS011;8858;52.308;20.994;2024-02-23T12:28:53;9.17;;;5.67;;
17482;SDS011;8858;52.308;20.994;2024-02-23T12:31:30;7.07;;;5.83;;
17482;SDS011;8858;52.308;20.994;2024-02-23T12:34:04;7.40;;;6.07;;
17482;SDS011;8858;52.308;20.994;2024-02-23T12:36:36;7.97;;;6.60;;
17482;SDS011;8858;52.308;20.994;2024-02-23T12:39:09;6.60;;;6.00;;
17482;SDS011;8858;52.308;20.994;2024-02-23T12:41:38;8.10;;;6.93;;
17482;SDS011;8858;52.308;20.994;2024-02-23T12:44:07;9.00;;;6.57;;
17482;SDS011;8858;52.308;20.994;2024-02-23T12:46:36;7.17;;;6.47;;
17482;SDS011;8858;52.308;20.994;2024-02-23T12:49:05;7.80;;;6.03;;
17482;SDS011;8858;52.308;20.994;2024-02-23T12:51:37;7.87;;;5.97;;
17482;SDS011;8858;52.308;20.994;2024-02-23T12:54:05;6.80;;;6.10;;
17482;SDS011;8858;52.308;20.994;2024-02-23T12:56:35;8.13;;;6.47;;
17482;SDS011;8858;52.308;20.994;2024-02-23T12:59:03;8.73;;;6.20;;
17482;SDS011;8858;52.308;20.994;2024-02-23T13:01:33;6.53;;;5.93;;
17482;SDS011;8858;52.308;20.994;2024-02-23T13:04:12;8.60;;;6.93;;
17482;SDS011;8858;52.308;20.994;2024-02-23T13:06:41;7.27;;;6.57;;
17482;SDS011;8858;52.308;20.994;2024-02-23T13:09:10;7.83;;;6.90;;
17482;SDS011;8858;52.308;20.994;2024-02-23T13:11:39;13.30;;;9.17;;
17482;SDS011;8858;52.308;20.994;2024-02-23T13:14:07;8.83;;;7.40;;
17482;SDS011;8858;52.308;20.994;2024-02-23T13:16:40;9.93;;;7.67;;
17482;SDS011;8858;52.308;20.994;2024-02-23T13:19:08;8.47;;;7.40;;
17482;SDS011;8858;52.308;20.994;2024-02-23T13:21:38;8.50;;;7.63;;
17482;SDS011;8858;52.308;20.994;2024-02-23T13:24:08;9.03;;;7.53;;
17482;SDS011;8858;52.308;20.994;2024-02-23T13:26:36;8.50;;;7.20;;
17482;SDS011;8858;52.308;20.994;2024-02-23T13:29:05;8.63;;;7.73;;
17482;SDS011;8858;52.308;20.994;2024-02-23T13:31:35;8.07;;;7.27;;
17482;SDS011;8858;52.308;20.994;2024-02-23T13:34:05;10.47;;;9.07;;
17482;SDS011;8858;52.308;20.994;2024-02-23T13:36:34;9.70;;;8.80;;
17482;SDS011;8858;52.308;20.994;2024-02-23T13:39:03;11.97;;;10.67;;
17482;SDS011;8858;52.308;20.994;2024-02-23T13:41:33;15.03;;;12.20;;
17482;SDS011;8858;52.308;20.994;2024-02-23T13:44:01;10.97;;;9.77;;
17482;SDS011;8858;52.308;20.994;2024-02-23T13:46:31;10.73;;;9.63;;
17482;SDS011;8858;52.308;20.994;2024-02-23T13:49:03;10.97;;;8.80;;
17482;SDS011;8858;52.308;20.994;2024-02-23T13:51:33;12.00;;;8.67;;
17482;SDS011;8858;52.308;20.994;2024-02-23T13:54:01;7.83;;;7.03;;
17482;SDS011;8858;52.308;20.994;2024-02-23T13:56:32;8.93;;;7.80;;
17482;SDS011;8858;52.308;20.994;2024-02-23T13:59:01;7.50;;;6.80;;
17482;SDS011;8858;52.308;20.994;2024-02-23T14:01:31;8.50;;;7.20;;
17482;SDS011;8858;52.308;20.994;2024-02-23T14:03:59;8.20;;;6.53;;
17482;SDS011;8858;52.308;20.994;2024-02-23T14:06:30;7.03;;;6.27;;
17482;SDS011;8858;52.308;20.994;2024-02-23T14:09:01;7.73;;;6.93;;
17482;SDS011;8858;52.308;20.994;2024-02-23T14:11:35;8.20;;;7.40;;
17482;SDS011;8858;52.308;20.994;2024-02-23T14:14:03;7.57;;;6.80;;
17482;SDS011;8858;52.308;20.994;2024-02-23T14:16:32;7.63;;;6.93;;
17482;SDS011;8858;52.308;20.994;2024-02-23T14:19:01;7.57;;;6.83;;
17482;SDS011;8858;52.308;20.994;2024-02-23T14:21:31;7.63;;;6.83;;
17482;SDS011;8858;52.308;20.994;2024-02-23T14:24:05;8.20;;;7.27;;
17482;SDS011;8858;52.308;20.994;2024-02-23T14:26:37;8.60;;;7.30;;
17482;SDS011;8858;52.308;20.994;2024-02-23T14:29:10;8.43;;;7.10;;
17482;SDS011;8858;52.308;20.994;2024-02-23T14:31:38;8.13;;;7.33;;
17482;SDS011;8858;52.308;20.994;2024-02-23T14:34:06;9.17;;;7.70;;
17482;SDS011;8858;52.308;20.994;2024-02-23T14:36:35;9.83;;;7.33;;
17482;SDS011;8858;52.308;20.994;2024-02-23T14:39:05;8.57;;;7.67;;
17482;SDS011;8858;52.308;20.994;2024-02-23T14:41:37;8.90;;;8.00;;
17482;SDS011;8858;52.308;20.994;2024-02-23T14:44:06;10.40;;;7.67;;
17482;SDS011;8858;52.308;20.994;2024-02-23T14:46:35;7.70;;;7.00;;
17482;SDS011;8858;52.308;20.994;2024-02-23T14:49:06;9.30;;;7.77;;
17482;SDS011;8858;52.308;20.994;2024-02-23T14:51:35;9.53;;;7.70;;
17482;SDS011;8858;52.308;20.994;2024-02-23T14:54:06;7.57;;;6.57;;
17482;SDS011;8858;52.308;20.994;2024-02-23T14:56:34;7.13;;;6.43;;
17482;SDS011;8858;52.308;20.994;2024-02-23T14:59:06;8.47;;;6.80;;
17482;SDS011;8858;52.308;20.994;2024-02-23T15:01:36;7.03;;;6.33;;
17482;SDS011;8858;52.308;20.994;2024-02-23T15:04:08;10.53;;;6.93;;
17482;SDS011;8858;52.308;20.994;2024-02-23T15:06:37;8.83;;;7.30;;